Time;durP1;ratioP1;P1;durP2;ratioP2;P2;SDS_P1;SDS_P2;PMS_P1;PMS_P2;Temp;Humidity;BMP_temperature;BMP_pressure;BME280_temperature;BME280_humidity;BME280_pressure;Samples;Min_cycle;Max_cycle;Signal;HPM_P1;HPM_P2
2021/12/28 00:00:23;;;;;;;141.53;76.97;;;;;;;3.81;nan;-23922.81;5093372;28;20228;-68
2021/12/28 00:02:49;;;;;;;132.50;73.30;;;;;;;3.81;nan;-23922.66;5092916;28;20184;-68
2021/12/28 00:05:17;;;;;;;134.40;75.13;;;;;;;4.03;nan;-23928.94;5093070;28;20178;-68
2021/12/28 00:07:42;;;;;;;130.90;71.50;;;;;;;4.05;nan;-23929.38;5092303;28;20341;-68
2021/12/28 00:10:10;;;;;;;128.83;72.97;;;;;;;3.66;nan;-23918.53;5092578;28;20691;-68
2021/12/28 00:12:38;;;;;;;137.57;72.63;;;;;;;3.72;nan;-23920.09;5091654;28;20181;-68
2021/12/28 00:15:07;;;;;;;128.00;69.63;;;;;;;4.04;nan;-23929.22;5086001;28;20185;-68
2021/12/28 00:20:18;;;;;;;133.50;73.30;;;;;;;3.60;nan;-23916.84;5091913;28;20216;-69
2021/12/28 00:22:43;;;;;;;134.43;74.47;;;;;;;3.54;nan;-23915.25;5091790;28;20181;-68
2021/12/28 00:25:11;;;;;;;138.33;76.70;;;;;;;3.58;nan;-23916.25;5092391;28;20189;-68
2021/12/28 00:27:37;;;;;;;136.27;76.60;;;;;;;3.38;nan;-23910.69;5092923;28;20196;-68
2021/12/28 00:30:03;;;;;;;149.77;78.77;;;;;;;3.68;nan;-23918.97;5091680;28;20633;-68
2021/12/28 00:32:29;;;;;;;143.77;78.07;;;;;;;3.62;nan;-23917.41;5093058;28;20192;-68
2021/12/28 00:34:54;;;;;;;140.80;77.23;;;;;;;3.63;nan;-23917.53;5091820;28;20178;-68
2021/12/28 00:37:20;;;;;;;145.97;79.37;;;;;;;3.43;nan;-23911.97;5092306;28;20196;-68
2021/12/28 00:39:45;;;;;;;144.13;76.90;;;;;;;3.50;nan;-23913.97;5092868;28;20492;-68
2021/12/28 00:42:11;;;;;;;129.63;72.60;;;;;;;3.07;nan;-23902.00;5092125;28;20637;-68
2021/12/28 00:44:36;;;;;;;134.70;75.50;;;;;;;3.39;nan;-23910.97;5091911;28;20264;-68
2021/12/28 00:47:02;;;;;;;147.27;78.03;;;;;;;3.42;nan;-23911.84;5092186;28;20196;-68
2021/12/28 00:49:27;;;;;;;143.67;76.20;;;;;;;3.16;nan;-23904.28;5091137;28;20626;-68
2021/12/28 00:51:54;;;;;;;143.97;78.67;;;;;;;3.24;nan;-23906.56;5091973;28;20191;-68
2021/12/28 00:54:21;;;;;;;149.57;82.07;;;;;;;3.69;nan;-23919.25;5092628;28;20177;-68
2021/12/28 00:56:46;;;;;;;140.87;76.90;;;;;;;3.64;nan;-23917.81;5091655;28;20189;-68
2021/12/28 00:59:12;;;;;;;149.40;78.27;;;;;;;3.71;nan;-23919.97;5089838;28;20649;-68
2021/12/28 01:01:38;;;;;;;138.50;77.30;;;;;;;3.67;nan;-23918.69;5069063;28;20238;-68
2021/12/28 01:04:03;;;;;;;136.93;74.07;;;;;;;3.16;nan;-23904.44;5091712;28;20220;-68
2021/12/28 01:06:29;;;;;;;140.10;77.23;;;;;;;3.14;nan;-23903.84;5092855;28;20317;-68
2021/12/28 01:08:54;;;;;;;135.87;74.73;;;;;;;3.56;nan;-23915.69;5092464;28;20173;-68
2021/12/28 01:11:20;;;;;;;130.80;73.73;;;;;;;3.68;nan;-23918.97;5092414;28;20647;-68
2021/12/28 01:13:46;;;;;;;142.70;76.97;;;;;;;3.57;nan;-23915.97;5092146;28;20166;-68
2021/12/28 01:16:13;;;;;;;140.57;76.77;;;;;;;3.30;nan;-23908.41;5092685;28;20173;-68
2021/12/28 01:18:40;;;;;;;141.77;75.30;;;;;;;3.33;nan;-23909.13;5091959;28;20224;-68
2021/12/28 01:21:06;;;;;;;133.03;72.17;;;;;;;3.69;nan;-23919.41;5092283;28;20196;-68
2021/12/28 01:23:32;;;;;;;134.50;74.00;;;;;;;3.73;nan;-23920.53;5074138;28;20625;-68
2021/12/28 01:25:57;;;;;;;129.50;72.03;;;;;;;3.44;nan;-23912.25;5092183;28;20214;-68
2021/12/28 01:28:23;;;;;;;131.97;70.97;;;;;;;3.21;nan;-23905.72;5091166;28;20173;-68
2021/12/28 01:30:48;;;;;;;134.13;71.07;;;;;;;3.37;nan;-23910.28;5092545;28;20217;-68
2021/12/28 01:33:14;;;;;;;129.43;71.67;;;;;;;3.23;nan;-23906.44;5092493;28;20181;-68
2021/12/28 01:35:39;;;;;;;129.00;69.03;;;;;;;3.38;nan;-23910.56;5073769;28;20181;-68
2021/12/28 01:38:05;;;;;;;126.83;70.30;;;;;;;3.59;nan;-23916.53;5091994;28;20227;-68
2021/12/28 01:40:40;;;;;;;125.70;69.13;;;;;;;3.70;nan;-23919.53;5092128;28;20177;-68
2021/12/28 01:43:21;;;;;;;123.77;68.77;;;;;;;3.46;nan;-23912.84;5092240;28;20174;-68
2021/12/28 01:45:57;;;;;;;127.73;67.97;;;;;;;3.86;nan;-23924.09;5091865;28;20169;-68
2021/12/28 01:48:25;;;;;;;120.90;65.77;;;;;;;3.63;nan;-23917.69;5092178;28;20580;-68
2021/12/28 01:50:54;;;;;;;121.43;66.40;;;;;;;3.47;nan;-23913.13;5091785;28;20221;-68
2021/12/28 01:53:20;;;;;;;116.17;62.27;;;;;;;3.66;nan;-23918.41;5091815;28;20515;-68
2021/12/28 01:55:48;;;;;;;119.37;64.97;;;;;;;3.97;nan;-23927.22;5091705;28;20627;-69
2021/12/28 01:58:14;;;;;;;117.53;64.47;;;;;;;4.00;nan;-23928.22;5072898;28;20283;-68
2021/12/28 02:00:42;;;;;;;123.57;66.63;;;;;;;4.11;nan;-23931.22;5090941;28;20247;-68
2021/12/28 02:03:11;;;;;;;114.67;64.33;;;;;;;4.05;nan;-23929.50;5091266;28;20192;-68
2021/12/28 02:05:37;;;;;;;118.47;64.50;;;;;;;4.19;nan;-23933.50;5075246;28;20208;-68
2021/12/28 02:08:04;;;;;;;121.00;68.60;;;;;;;4.50;nan;-23942.03;5091596;28;20181;-68
2021/12/28 02:10:30;;;;;;;117.70;65.70;;;;;;;4.27;nan;-23935.63;5091423;28;20188;-68
2021/12/28 02:12:55;;;;;;;115.50;65.47;;;;;;;3.80;nan;-23922.38;5091298;28;20181;-68
2021/12/28 02:15:21;;;;;;;121.13;65.30;;;;;;;4.14;nan;-23931.94;5090616;28;20208;-69
2021/12/28 02:17:46;;;;;;;119.40;65.57;;;;;;;3.97;nan;-23927.38;5090390;28;20236;-69
2021/12/28 02:20:16;;;;;;;117.37;65.87;;;;;;;4.32;nan;-23937.06;5091159;28;20174;-68
2021/12/28 02:22:41;;;;;;;120.57;63.37;;;;;;;4.25;nan;-23935.06;5090932;28;20602;-68
2021/12/28 02:25:09;;;;;;;117.30;64.17;;;;;;;4.07;nan;-23929.94;5090891;28;20185;-68
2021/12/28 02:27:35;;;;;;;112.63;62.13;;;;;;;4.04;nan;-23929.09;5091163;28;20189;-69
2021/12/28 02:30:02;;;;;;;115.43;62.90;;;;;;;4.12;nan;-23931.50;5073166;28;20546;-68
2021/12/28 02:32:29;;;;;;;116.97;64.90;;;;;;;4.23;nan;-23934.50;5091340;28;20178;-68
2021/12/28 02:34:56;;;;;;;111.97;62.23;;;;;;;4.30;nan;-23936.50;5090904;28;20220;-69
2021/12/28 02:37:22;;;;;;;114.23;61.50;;;;;;;4.24;nan;-23934.91;5090878;28;20660;-68
2021/12/28 02:39:48;;;;;;;107.33;62.47;;;;;;;4.33;nan;-23937.47;5093255;28;20195;-69
2021/12/28 02:42:19;;;;;;;110.40;59.70;;;;;;;4.25;nan;-23935.22;5094427;28;20266;-68
2021/12/28 02:44:44;;;;;;;109.30;60.43;;;;;;;4.28;nan;-23935.91;5094668;28;20223;-69
2021/12/28 02:47:10;;;;;;;111.00;59.73;;;;;;;4.65;nan;-23946.44;5093500;28;20660;-68
2021/12/28 02:49:38;;;;;;;110.43;60.67;;;;;;;4.85;nan;-23952.16;5093826;28;20548;-69
2021/12/28 02:52:09;;;;;;;105.80;59.43;;;;;;;4.72;nan;-23948.44;5094674;28;20313;-69
2021/12/28 02:54:38;;;;;;;113.70;61.77;;;;;;;4.65;nan;-23946.44;5093899;28;20656;-68
2021/12/28 02:57:04;;;;;;;102.00;59.47;;;;;;;4.64;nan;-23946.03;5094458;28;20233;-68
2021/12/28 02:59:29;;;;;;;108.70;60.10;;;;;;;4.78;nan;-23950.00;5094430;28;20185;-69
2021/12/28 03:01:54;;;;;;;107.33;60.77;;;;;;;4.54;nan;-23943.31;5094578;28;20330;-68
2021/12/28 03:04:23;;;;;;;111.07;61.57;;;;;;;3.99;nan;-23927.94;5093942;28;20571;-68
2021/12/28 03:06:48;;;;;;;109.77;58.67;;;;;;;4.21;nan;-23934.06;5093390;28;20208;-68
2021/12/28 03:09:15;;;;;;;110.90;60.17;;;;;;;4.00;nan;-23928.22;5094026;28;20180;-69
2021/12/28 03:11:41;;;;;;;112.30;61.03;;;;;;;3.61;nan;-23916.97;5094774;28;20708;-68
2021/12/28 03:14:07;;;;;;;109.97;61.70;;;;;;;3.97;nan;-23927.38;5093919;28;20379;-68
2021/12/28 03:16:33;;;;;;;112.13;62.80;;;;;;;3.90;nan;-23925.22;5094132;28;20620;-69
2021/12/28 03:18:59;;;;;;;110.20;61.73;;;;;;;3.78;nan;-23921.81;5094470;28;20631;-68
2021/12/28 03:21:25;;;;;;;122.40;66.63;;;;;;;3.70;nan;-23919.69;5094098;28;20173;-68
2021/12/28 03:23:52;;;;;;;118.03;65.93;;;;;;;3.96;nan;-23926.94;5092570;28;20189;-68
2021/12/28 03:26:18;;;;;;;110.73;62.30;;;;;;;4.22;nan;-23934.22;5093481;28;20209;-69
2021/12/28 03:28:45;;;;;;;120.37;65.43;;;;;;;3.96;nan;-23926.94;5093686;28;20193;-69
2021/12/28 03:31:14;;;;;;;122.83;66.63;;;;;;;3.97;nan;-23927.38;5091465;28;20254;-68
2021/12/28 03:33:41;;;;;;;120.40;64.13;;;;;;;4.26;nan;-23935.50;5066619;28;20193;-68
2021/12/28 03:36:08;;;;;;;115.57;62.07;;;;;;;3.97;nan;-23927.22;5092055;28;20636;-68
2021/12/28 03:38:35;;;;;;;115.00;61.57;;;;;;;4.29;nan;-23936.34;5092879;28;20209;-68
2021/12/28 03:41:02;;;;;;;113.13;61.23;;;;;;;4.00;nan;-23928.09;5094106;28;20523;-68
2021/12/28 03:43:28;;;;;;;103.67;58.07;;;;;;;4.24;nan;-23934.78;5092694;28;20201;-68
2021/12/28 03:45:53;;;;;;;124.77;68.27;;;;;;;4.52;nan;-23942.75;5093616;28;20259;-69
2021/12/28 03:48:19;;;;;;;115.27;62.90;;;;;;;4.05;nan;-23929.50;5093489;28;20169;-68
2021/12/28 03:50:44;;;;;;;131.17;72.37;;;;;;;3.78;nan;-23921.97;5091540;28;20639;-68
2021/12/28 03:53:10;;;;;;;133.33;70.50;;;;;;;4.00;nan;-23928.09;5092997;28;20209;-68
2021/12/28 03:55:36;;;;;;;113.13;61.10;;;;;;;4.35;nan;-23938.06;5093312;28;20279;-68
2021/12/28 03:58:02;;;;;;;97.27;54.83;;;;;;;4.23;nan;-23934.50;5093594;28;20208;-69
2021/12/28 04:00:33;;;;;;;98.93;54.93;;;;;;;3.72;nan;-23920.09;5090712;28;20264;-69
2021/12/28 04:02:59;;;;;;;105.73;56.13;;;;;;;3.69;nan;-23919.41;5090604;28;20173;-68
2021/12/28 04:05:24;;;;;;;96.57;53.43;;;;;;;3.76;nan;-23921.38;5092230;28;20188;-69
2021/12/28 04:07:50;;;;;;;108.33;58.90;;;;;;;3.15;nan;-23904.13;5092736;28;20551;-68
2021/12/28 04:10:16;;;;;;;112.07;60.00;;;;;;;3.44;nan;-23912.41;5092639;28;20503;-68
2021/12/28 04:12:43;;;;;;;115.33;58.33;;;;;;;3.12;nan;-23903.28;5091525;28;20604;-68
2021/12/28 04:15:12;;;;;;;111.40;60.23;;;;;;;3.16;nan;-23904.44;5092298;28;20188;-68
2021/12/28 04:17:38;;;;;;;110.63;61.03;;;;;;;2.92;nan;-23897.56;5092721;28;20199;-68
2021/12/28 04:20:11;;;;;;;111.17;60.53;;;;;;;2.40;nan;-23882.88;5091532;28;20177;-68
2021/12/28 04:22:37;;;;;;;108.77;59.57;;;;;;;2.78;nan;-23893.72;5093032;28;20180;-68
2021/12/28 04:25:05;;;;;;;111.10;62.20;;;;;;;2.88;nan;-23896.44;5074563;28;20557;-68
2021/12/28 04:27:30;;;;;;;107.80;59.57;;;;;;;2.68;nan;-23890.88;5092708;28;20200;-68
2021/12/28 04:29:56;;;;;;;103.77;57.57;;;;;;;2.66;nan;-23890.44;5092830;28;20207;-68
2021/12/28 04:32:21;;;;;;;111.53;58.47;;;;;;;2.85;nan;-23895.72;5092494;28;20500;-68
2021/12/28 04:34:47;;;;;;;109.20;58.47;;;;;;;2.88;nan;-23896.44;5092448;28;20231;-68
2021/12/28 04:37:12;;;;;;;96.07;54.70;;;;;;;2.86;nan;-23895.88;5092801;28;20284;-68
2021/12/28 04:39:38;;;;;;;102.53;54.83;;;;;;;2.88;nan;-23896.44;5092857;28;20169;-68
2021/12/28 04:42:04;;;;;;;103.73;54.40;;;;;;;2.84;nan;-23895.44;5092444;28;20640;-68
2021/12/28 04:44:29;;;;;;;107.13;54.90;;;;;;;2.95;nan;-23898.44;5092019;28;20235;-68
2021/12/28 04:46:55;;;;;;;97.93;54.17;;;;;;;3.25;nan;-23907.00;5092317;28;20566;-67
2021/12/28 04:49:24;;;;;;;98.87;51.77;;;;;;;2.87;nan;-23896.16;5092406;28;20222;-68
2021/12/28 04:51:50;;;;;;;102.40;54.00;;;;;;;2.92;nan;-23897.72;5092410;28;20254;-68
2021/12/28 04:54:17;;;;;;;95.00;50.63;;;;;;;2.98;nan;-23899.28;5092630;28;20188;-68
2021/12/28 04:56:42;;;;;;;94.73;48.87;;;;;;;3.27;nan;-23907.41;5092497;28;20715;-68
2021/12/28 04:59:08;;;;;;;94.83;51.27;;;;;;;3.34;nan;-23909.56;5091536;28;20256;-68
2021/12/28 05:01:37;;;;;;;83.33;47.30;;;;;;;3.17;nan;-23904.72;5091802;28;20273;-68
2021/12/28 05:04:04;;;;;;;82.80;45.80;;;;;;;3.38;nan;-23910.69;5092433;28;20640;-68
2021/12/28 05:06:30;;;;;;;84.63;45.17;;;;;;;3.66;nan;-23918.53;5092149;28;20239;-68
2021/12/28 05:08:55;;;;;;;81.67;44.97;;;;;;;4.08;nan;-23930.22;5091465;28;20219;-68
2021/12/28 05:11:21;;;;;;;80.03;44.03;;;;;;;3.88;nan;-23924.66;5092242;28;20686;-68
2021/12/28 05:13:46;;;;;;;77.00;42.47;;;;;;;3.77;nan;-23921.53;5091993;28;20651;-68
2021/12/28 05:16:15;;;;;;;74.63;42.40;;;;;;;2.47;nan;-23884.88;5091978;28;20177;-69
2021/12/28 05:18:40;;;;;;;71.07;41.27;;;;;;;3.74;nan;-23920.81;5092252;28;20303;-68
2021/12/28 05:21:06;;;;;;;82.17;43.47;;;;;;;3.47;nan;-23913.13;5092047;28;20177;-68
2021/12/28 05:23:31;;;;;;;81.23;45.53;;;;;;;3.65;nan;-23918.13;5092018;28;20632;-68
2021/12/28 05:25:57;;;;;;;70.87;41.90;;;;;;;3.80;nan;-23922.53;5091724;28;20314;-68
2021/12/28 05:28:22;;;;;;;82.30;43.97;;;;;;;3.63;nan;-23917.69;5091113;28;20213;-68
2021/12/28 05:30:48;;;;;;;73.83;42.00;;;;;;;3.37;nan;-23910.41;5091967;28;20165;-68
2021/12/28 05:33:13;;;;;;;73.53;42.73;;;;;;;3.62;nan;-23917.41;5090703;28;20185;-68
2021/12/28 05:35:38;;;;;;;73.03;43.30;;;;;;;3.24;nan;-23906.72;5090634;28;20230;-68
2021/12/28 05:38:04;;;;;;;75.40;43.53;;;;;;;3.40;nan;-23911.13;5091572;28;20193;-68
2021/12/28 05:40:29;;;;;;;73.27;43.53;;;;;;;3.52;nan;-23914.69;5091800;28;20173;-68
2021/12/28 05:42:55;;;;;;;75.00;42.43;;;;;;;3.39;nan;-23910.97;5091664;28;20239;-68
2021/12/28 05:45:20;;;;;;;76.70;43.17;;;;;;;3.63;nan;-23917.53;5091477;28;20227;-68
2021/12/28 05:47:46;;;;;;;77.03;43.10;;;;;;;3.73;nan;-23920.38;5091716;28;20176;-69
2021/12/28 05:50:11;;;;;;;74.53;42.73;;;;;;;3.35;nan;-23909.69;5090985;28;20225;-69
2021/12/28 05:52:37;;;;;;;73.17;43.07;;;;;;;3.86;nan;-23924.09;5091265;28;20543;-68
2021/12/28 05:55:04;;;;;;;73.93;43.60;;;;;;;3.30;nan;-23908.28;5091418;28;20165;-68
2021/12/28 05:57:30;;;;;;;81.37;44.80;;;;;;;3.21;nan;-23905.72;5091619;28;20197;-68
2021/12/28 05:59:56;;;;;;;77.93;45.37;;;;;;;2.64;nan;-23889.88;5091491;28;20588;-68
2021/12/28 06:02:22;;;;;;;85.07;45.23;;;;;;;3.53;nan;-23914.84;5073116;28;20173;-69
2021/12/28 06:04:47;;;;;;;73.07;44.80;;;;;;;3.44;nan;-23912.25;5091752;28;20212;-69
2021/12/28 06:07:13;;;;;;;82.80;44.70;;;;;;;3.67;nan;-23918.69;5091606;28;20169;-69
2021/12/28 06:09:38;;;;;;;71.47;43.03;;;;;;;3.43;nan;-23911.97;5091334;28;20491;-69
2021/12/28 06:12:06;;;;;;;76.73;44.77;;;;;;;3.74;nan;-23920.69;5091238;28;20593;-68
2021/12/28 06:14:32;;;;;;;79.10;45.67;;;;;;;3.81;nan;-23922.81;5094039;28;20222;-68
2021/12/28 06:16:57;;;;;;;76.83;43.70;;;;;;;4.05;nan;-23929.50;5095535;28;20173;-68
2021/12/28 06:19:23;;;;;;;75.67;45.13;;;;;;;3.88;nan;-23924.66;5077595;28;20234;-68
2021/12/28 06:21:48;;;;;;;79.00;44.17;;;;;;;3.68;nan;-23919.09;5095441;28;20166;-68
2021/12/28 06:24:14;;;;;;;81.00;46.20;;;;;;;3.68;nan;-23918.97;5095146;28;20550;-68
2021/12/28 06:26:39;;;;;;;81.60;46.23;;;;;;;3.35;nan;-23909.69;5077146;28;20695;-68
2021/12/28 06:29:06;;;;;;;83.57;46.87;;;;;;;3.73;nan;-23920.53;5095381;28;20606;-68
2021/12/28 06:31:32;;;;;;;80.43;45.77;;;;;;;3.75;nan;-23920.97;5094907;28;20184;-68
2021/12/28 06:34:00;;;;;;;84.80;47.30;;;;;;;3.62;nan;-23917.25;5095033;28;20178;-68
2021/12/28 06:36:27;;;;;;;75.50;43.07;;;;;;;3.71;nan;-23919.97;5094847;28;20181;-68
2021/12/28 06:38:53;;;;;;;80.27;46.33;;;;;;;3.37;nan;-23910.28;5095611;28;20204;-68
2021/12/28 06:41:19;;;;;;;78.30;46.87;;;;;;;3.73;nan;-23920.53;5095224;28;20178;-68
2021/12/28 06:43:47;;;;;;;79.53;47.20;;;;;;;2.96;nan;-23898.72;5094443;28;20182;-67
2021/12/28 06:46:13;;;;;;;76.30;45.60;;;;;;;3.87;nan;-23924.53;5095190;28;20176;-69
2021/12/28 06:48:38;;;;;;;75.63;44.53;;;;;;;3.97;nan;-23927.22;5095558;28;20173;-69
2021/12/28 06:51:05;;;;;;;73.67;43.23;;;;;;;3.68;nan;-23918.97;5094393;28;20643;-69
2021/12/28 06:53:30;;;;;;;68.00;38.90;;;;;;;4.29;nan;-23936.34;5094939;28;20170;-69
2021/12/28 06:55:56;;;;;;;63.77;39.13;;;;;;;4.27;nan;-23935.78;5094867;28;20621;-69
2021/12/28 06:58:21;;;;;;;64.57;38.50;;;;;;;4.36;nan;-23938.19;5094794;28;20602;-69
2021/12/28 07:00:46;;;;;;;60.80;37.63;;;;;;;4.30;nan;-23936.50;5094621;28;20204;-68
2021/12/28 07:03:12;;;;;;;57.00;35.30;;;;;;;4.16;nan;-23932.50;5076505;28;20181;-69
2021/12/28 07:05:37;;;;;;;56.07;35.33;;;;;;;4.29;nan;-23936.34;5094743;28;20235;-68
2021/12/28 07:08:03;;;;;;;59.10;34.93;;;;;;;4.29;nan;-23936.19;5094787;28;20655;-69
2021/12/28 07:10:28;;;;;;;55.63;33.50;;;;;;;5.00;nan;-23956.13;5076333;28;20181;-68
2021/12/28 07:12:54;;;;;;;53.57;30.87;;;;;;;5.17;nan;-23961.09;5094460;28;20177;-69
2021/12/28 07:15:21;;;;;;;54.07;30.67;;;;;;;5.13;nan;-23959.97;5094605;28;20177;-69
2021/12/28 07:17:47;;;;;;;49.27;30.27;;;;;;;5.31;nan;-23965.09;5094171;28;20243;-69
2021/12/28 07:20:14;;;;;;;51.93;30.33;;;;;;;5.30;nan;-23964.81;5093924;28;20636;-69
2021/12/28 07:22:40;;;;;;;48.43;30.77;;;;;;;5.40;nan;-23967.50;5094444;28;20172;-69
2021/12/28 07:25:07;;;;;;;45.50;28.50;;;;;;;5.61;nan;-23973.34;5094020;28;20646;-68
2021/12/28 07:27:32;;;;;;;45.30;29.60;;;;;;;5.81;nan;-23978.88;5094196;28;20180;-69
2021/12/28 07:29:58;;;;;;;46.03;28.87;;;;;;;5.49;nan;-23969.91;5093335;28;20178;-68
2021/12/28 07:32:23;;;;;;;53.37;31.63;;;;;;;6.05;nan;-23985.84;5094275;28;20174;-69
2021/12/28 07:34:49;;;;;;;47.27;29.33;;;;;;;5.68;nan;-23975.31;5073712;28;20653;-69
2021/12/28 07:37:14;;;;;;;50.77;31.53;;;;;;;5.87;nan;-23980.59;5078637;28;20197;-69
2021/12/28 07:39:40;;;;;;;50.40;30.80;;;;;;;6.27;nan;-23991.94;5094144;28;20209;-69
2021/12/28 07:42:06;;;;;;;49.93;30.50;;;;;;;5.74;nan;-23977.03;5093162;28;20628;-69
2021/12/28 07:44:31;;;;;;;46.57;30.93;;;;;;;6.37;nan;-23994.78;5094003;28;20648;-68
2021/12/28 07:46:57;;;;;;;45.87;30.17;;;;;;;6.70;nan;-24004.00;5093953;28;20197;-69
2021/12/28 07:49:22;;;;;;;48.80;31.70;;;;;;;6.41;nan;-23995.91;5093163;28;20174;-69
2021/12/28 07:51:48;;;;;;;47.37;31.10;;;;;;;6.72;nan;-24004.44;5093891;28;20785;-69
2021/12/28 07:54:14;;;;;;;46.93;30.30;;;;;;;7.02;nan;-24013.09;5093253;28;20185;-69
2021/12/28 07:56:39;;;;;;;51.17;33.37;;;;;;;7.17;nan;-24017.19;5092702;28;20188;-69
2021/12/28 07:59:05;;;;;;;51.67;32.47;;;;;;;7.20;nan;-24018.06;5093055;28;20220;-69
2021/12/28 08:01:32;;;;;;;50.07;30.40;;;;;;;6.82;nan;-24007.41;5091574;28;20169;-69
2021/12/28 08:03:58;;;;;;;45.17;30.63;;;;;;;7.23;nan;-24018.91;5093347;28;20640;-69
2021/12/28 08:06:23;;;;;;;50.07;32.57;;;;;;;7.09;nan;-24015.06;5091793;28;20173;-69
2021/12/28 08:08:49;;;;;;;50.57;33.73;;;;;;;7.56;nan;-24028.13;5093433;28;20181;-69
2021/12/28 08:11:14;;;;;;;48.70;31.40;;;;;;;7.58;nan;-24028.53;5092677;28;20181;-69
2021/12/28 08:13:40;;;;;;;51.60;31.77;;;;;;;7.64;nan;-24030.25;5090709;28;20178;-69
2021/12/28 08:16:05;;;;;;;39.53;26.33;;;;;;;8.10;nan;-24043.13;5090131;28;20178;-69
2021/12/28 08:18:30;;;;;;;36.83;23.23;;;;;;;7.69;nan;-24031.81;5091631;28;20701;-69
2021/12/28 08:20:56;;;;;;;33.33;21.67;;;;;;;8.15;nan;-24044.56;5091493;28;20181;-69
2021/12/28 08:23:21;;;;;;;34.17;22.37;;;;;;;7.81;nan;-24035.06;5092833;28;20222;-70
2021/12/28 08:25:47;;;;;;;35.00;21.97;;;;;;;8.40;nan;-24051.63;5092975;28;20223;-68
2021/12/28 08:28:12;;;;;;;38.43;22.33;;;;;;;8.48;nan;-24053.75;5091785;28;20230;-68
2021/12/28 08:30:38;;;;;;;37.33;24.23;;;;;;;7.89;nan;-24037.47;5092819;28;20233;-68
2021/12/28 08:33:06;;;;;;;38.33;24.10;;;;;;;8.32;nan;-24049.38;5092548;28;20253;-69
2021/12/28 08:35:32;;;;;;;37.00;24.83;;;;;;;8.05;nan;-24041.84;5092359;28;20184;-69
2021/12/28 08:37:58;;;;;;;42.73;28.07;;;;;;;8.35;nan;-24050.22;5091798;28;20268;-69
2021/12/28 08:40:24;;;;;;;38.95;23.42;;;;;;;8.38;nan;-24051.06;5092087;28;20366;-70
2021/12/28 08:42:50;;;;;;;35.08;22.30;;;;;;;8.76;nan;-24061.81;5092464;28;20191;-69
2021/12/28 08:45:16;;;;;;;33.57;22.00;;;;;;;9.24;nan;-24075.25;5092284;28;20173;-69
2021/12/28 08:47:42;;;;;;;36.10;22.13;;;;;;;8.83;nan;-24063.81;5092664;28;20169;-69
2021/12/28 08:50:09;;;;;;;33.85;21.88;;;;;;;9.01;nan;-24068.63;5092630;28;20222;-68
2021/12/28 08:52:35;;;;;;;34.13;22.80;;;;;;;9.28;nan;-24076.38;5092485;28;20640;-69
2021/12/28 08:55:01;;;;;;;34.47;22.70;;;;;;;9.58;nan;-24084.59;5091979;28;20179;-69
2021/12/28 08:57:27;;;;;;;37.83;21.85;;;;;;;9.56;nan;-24084.03;5092431;28;20205;-69
2021/12/28 08:59:52;;;;;;;35.88;21.40;;;;;;;9.96;nan;-24095.19;5092302;28;20170;-69
2021/12/28 09:02:18;;;;;;;33.92;21.27;;;;;;;10.16;nan;-24100.84;5092188;28;20264;-68
2021/12/28 09:04:43;;;;;;;28.52;20.40;;;;;;;10.39;nan;-24107.19;5092261;28;20176;-69
2021/12/28 09:07:14;;;;;;;27.67;19.85;;;;;;;10.63;nan;-24114.09;5092007;28;20549;-68
2021/12/28 09:09:40;;;;;;;31.98;20.73;;;;;;;10.60;nan;-24113.13;5092418;28;20632;-68
2021/12/28 09:12:06;;;;;;;32.33;20.88;;;;;;;10.69;nan;-24115.50;5092858;28;20208;-68
2021/12/28 09:14:32;;;;;;;30.48;20.05;;;;;;;11.04;nan;-24125.38;5092676;28;20176;-68
2021/12/28 09:16:58;;;;;;;29.02;18.75;;;;;;;11.04;nan;-24125.53;5092566;28;20173;-68
2021/12/28 09:19:24;;;;;;;27.92;18.98;;;;;;;11.23;nan;-24130.75;5092341;28;20204;-69
2021/12/28 09:21:49;;;;;;;28.45;20.08;;;;;;;11.14;nan;-24128.19;5092155;28;20225;-69
2021/12/28 09:24:15;;;;;;;28.40;19.63;;;;;;;11.61;nan;-24141.16;5090687;28;20190;-68
2021/12/28 09:26:40;;;;;;;29.85;19.58;;;;;;;11.78;nan;-24145.97;5091409;28;20301;-69
2021/12/28 09:29:06;;;;;;;28.42;18.40;;;;;;;11.35;nan;-24134.13;5092079;28;20300;-69
2021/12/28 09:31:33;;;;;;;25.52;17.80;;;;;;;11.84;nan;-24147.66;5091751;28;20617;-68
2021/12/28 09:33:58;;;;;;;24.75;17.73;;;;;;;11.87;nan;-24148.50;5073818;28;20596;-68
2021/12/28 09:36:24;;;;;;;26.67;17.55;;;;;;;11.77;nan;-24145.81;5091736;28;20173;-68
2021/12/28 09:38:49;;;;;;;25.02;16.90;;;;;;;11.39;nan;-24135.09;5091322;28;20304;-70
2021/12/28 09:41:15;;;;;;;23.25;16.70;;;;;;;11.90;nan;-24149.34;5092115;28;20173;-69
2021/12/28 09:43:41;;;;;;;27.25;16.20;;;;;;;11.70;nan;-24143.69;5092038;28;20173;-68
2021/12/28 09:46:07;;;;;;;24.08;15.70;;;;;;;12.27;nan;-24159.75;5091371;28;20171;-69
2021/12/28 09:48:34;;;;;;;25.60;17.05;;;;;;;12.50;nan;-24166.09;5092663;28;20180;-68
2021/12/28 09:51:00;;;;;;;25.60;17.08;;;;;;;12.66;nan;-24170.44;5096297;28;20217;-69
2021/12/28 09:53:26;;;;;;;26.02;17.58;;;;;;;12.27;nan;-24159.63;5095737;28;20260;-69
2021/12/28 09:55:51;;;;;;;27.33;17.38;;;;;;;12.38;nan;-24162.84;5096060;28;20227;-69
2021/12/28 09:58:17;;;;;;;26.20;18.05;;;;;;;12.51;nan;-24166.22;5095881;28;20196;-69
2021/12/28 10:00:42;;;;;;;25.42;17.52;;;;;;;12.26;nan;-24159.47;5096287;28;20578;-69
2021/12/28 10:03:08;;;;;;;29.40;17.52;;;;;;;12.77;nan;-24173.53;5096248;28;20702;-69
2021/12/28 10:05:34;;;;;;;24.95;17.42;;;;;;;12.26;nan;-24159.47;5095608;28;20177;-69
2021/12/28 10:08:01;;;;;;;26.30;16.45;;;;;;;12.35;nan;-24161.88;5095721;28;20177;-69
2021/12/28 10:10:30;;;;;;;24.20;16.35;;;;;;;12.76;nan;-24173.25;5095633;28;20600;-69
2021/12/28 10:13:01;;;;;;;25.80;16.73;;;;;;;12.87;nan;-24176.22;5095305;28;20238;-68
2021/12/28 10:15:33;;;;;;;25.05;16.20;;;;;;;12.57;nan;-24168.06;5095604;28;20550;-68
2021/12/28 10:18:01;;;;;;;24.85;16.90;;;;;;;12.95;nan;-24178.59;5095780;28;20216;-69
2021/12/28 10:20:54;;;;;;;24.10;16.77;;;;;;;13.15;nan;-24184.09;5095631;28;20179;-68
2021/12/28 10:23:31;;;;;;;23.88;16.80;;;;;;;12.90;nan;-24177.06;5085570;28;20246;-69
2021/12/28 10:25:59;;;;;;;27.23;17.13;;;;;;;12.98;nan;-24179.44;5095593;28;20172;-67
2021/12/28 10:28:32;;;;;;;30.38;16.60;;;;;;;13.18;nan;-24185.06;5095278;28;20656;-68
2021/12/28 10:31:05;;;;;;;25.45;16.60;;;;;;;13.19;nan;-24185.34;5095642;28;20243;-68
2021/12/28 10:33:36;;;;;;;26.23;17.30;;;;;;;13.34;nan;-24189.28;5095638;28;20169;-68
2021/12/28 10:36:06;;;;;;;26.83;16.98;;;;;;;13.33;nan;-24189.00;5095591;28;20659;-68
2021/12/28 10:38:38;;;;;;;26.27;16.50;;;;;;;13.35;nan;-24189.72;5094628;28;20204;-69
2021/12/28 10:41:11;;;;;;;29.55;18.38;;;;;;;13.56;nan;-24195.47;5094234;28;20184;-69
2021/12/28 10:43:40;;;;;;;22.00;16.10;;;;;;;13.43;nan;-24191.81;5094750;28;20170;-69
2021/12/28 10:46:11;;;;;;;25.50;16.40;;;;;;;13.44;nan;-24192.25;5095154;28;20177;-70
2021/12/28 10:48:50;;;;;;;26.85;16.70;;;;;;;13.50;nan;-24193.91;5095195;28;20177;-68
2021/12/28 10:51:24;;;;;;;25.95;16.63;;;;;;;13.21;nan;-24185.78;5094818;28;20224;-68
2021/12/28 10:56:31;;;;;;;29.98;18.65;;;;;;;13.54;nan;-24194.91;5094202;28;20185;-68
2021/12/28 10:58:57;;;;;;;25.23;16.90;;;;;;;13.50;nan;-24193.78;5094098;28;20568;-69
2021/12/28 11:01:25;;;;;;;23.20;16.80;;;;;;;13.13;nan;-24183.66;5094340;28;20177;-68
2021/12/28 11:03:53;;;;;;;25.30;16.33;;;;;;;12.94;nan;-24178.31;5094574;28;20212;-68
2021/12/28 11:06:24;;;;;;;24.23;15.80;;;;;;;13.25;nan;-24187.03;5094885;28;20193;-69
2021/12/28 11:08:52;;;;;;;21.83;15.60;;;;;;;12.91;nan;-24177.34;5094707;28;20223;-69
2021/12/28 11:11:21;;;;;;;24.90;16.30;;;;;;;12.98;nan;-24179.31;5078490;28;20208;-68
2021/12/28 11:13:47;;;;;;;24.90;16.02;;;;;;;12.99;nan;-24179.59;5095001;28;20181;-68
2021/12/28 11:16:14;;;;;;;27.83;16.38;;;;;;;13.12;nan;-24183.25;5094688;28;20662;-69
2021/12/28 11:18:45;;;;;;;21.52;15.73;;;;;;;13.15;nan;-24184.09;5093928;28;20227;-68
2021/12/28 11:21:16;;;;;;;24.95;16.10;;;;;;;13.56;nan;-24195.59;5093566;28;20636;-68
2021/12/28 11:23:43;;;;;;;22.85;15.13;;;;;;;13.59;nan;-24196.31;5094524;28;20177;-69
2021/12/28 11:26:11;;;;;;;24.10;15.38;;;;;;;13.69;nan;-24199.13;5094796;28;20173;-68
2021/12/28 11:28:39;;;;;;;23.02;14.68;;;;;;;13.65;nan;-24198.00;5094407;28;20188;-69
2021/12/28 11:31:17;;;;;;;24.35;15.68;;;;;;;13.66;nan;-24198.41;5093274;28;20640;-69